sensor_id;sensor_type;location;lat;lon;timestamp;P1;durP1;ratioP1;P2;durP2;ratioP2
5121;SDS011;2563;52.242;7.956;2023-08-24T00:00:40;5.70;;;3.00;;
5121;SDS011;2563;52.242;7.956;2023-08-24T00:03:06;11.83;;;3.83;;
5121;SDS011;2563;52.242;7.956;2023-08-24T00:05:33;4.60;;;2.50;;
5121;SDS011;2563;52.242;7.956;2023-08-24T00:08:00;5.87;;;3.00;;
5121;SDS011;2563;52.242;7.956;2023-08-24T00:10:25;4.30;;;2.30;;
5121;SDS011;2563;52.242;7.956;2023-08-24T00:12:50;4.93;;;2.87;;
5121;SDS011;2563;52.242;7.956;2023-08-24T00:15:16;5.77;;;2.53;;
5121;SDS011;2563;52.242;7.956;2023-08-24T00:17:41;5.73;;;3.30;;
5121;SDS011;2563;52.242;7.956;2023-08-24T00:20:07;7.80;;;2.83;;
5121;SDS011;2563;52.242;7.956;2023-08-24T00:22:35;5.00;;;2.67;;
5121;SDS011;2563;52.242;7.956;2023-08-24T00:25:01;4.70;;;2.47;;
5121;SDS011;2563;52.242;7.956;2023-08-24T00:27:27;5.87;;;3.00;;
5121;SDS011;2563;52.242;7.956;2023-08-24T00:29:52;4.87;;;2.30;;
5121;SDS011;2563;52.242;7.956;2023-08-24T00:32:17;7.17;;;2.50;;
5121;SDS011;2563;52.242;7.956;2023-08-24T00:34:43;5.50;;;2.83;;
5121;SDS011;2563;52.242;7.956;2023-08-24T00:37:08;7.13;;;2.73;;
5121;SDS011;2563;52.242;7.956;2023-08-24T00:39:34;7.97;;;2.77;;
5121;SDS011;2563;52.242;7.956;2023-08-24T00:41:59;6.00;;;2.70;;
5121;SDS011;2563;52.242;7.956;2023-08-24T00:44:25;6.43;;;3.27;;
5121;SDS011;2563;52.242;7.956;2023-08-24T00:46:50;7.00;;;2.80;;
5121;SDS011;2563;52.242;7.956;2023-08-24T00:49:16;4.83;;;2.60;;
5121;SDS011;2563;52.242;7.956;2023-08-24T00:51:42;5.47;;;2.90;;
5121;SDS011;2563;52.242;7.956;2023-08-24T00:54:07;6.80;;;3.10;;
5121;SDS011;2563;52.242;7.956;2023-08-24T00:56:33;7.73;;;3.00;;
5121;SDS011;2563;52.242;7.956;2023-08-24T00:58:58;6.50;;;3.07;;
5121;SDS011;2563;52.242;7.956;2023-08-24T01:01:23;5.60;;;2.87;;
5121;SDS011;2563;52.242;7.956;2023-08-24T01:03:49;5.13;;;2.60;;
5121;SDS011;2563;52.242;7.956;2023-08-24T01:06:15;23.93;;;5.77;;
5121;SDS011;2563;52.242;7.956;2023-08-24T01:08:40;9.60;;;4.73;;
5121;SDS011;2563;52.242;7.956;2023-08-24T01:13:52;10.70;;;4.00;;
5121;SDS011;2563;52.242;7.956;2023-08-24T01:16:28;19.93;;;7.17;;
5121;SDS011;2563;52.242;7.956;2023-08-24T01:18:59;18.90;;;6.87;;
5121;SDS011;2563;52.242;7.956;2023-08-24T01:21:26;17.87;;;6.50;;
5121;SDS011;2563;52.242;7.956;2023-08-24T01:26:37;23.13;;;7.40;;
5121;SDS011;2563;52.242;7.956;2023-08-24T01:29:03;16.93;;;5.87;;
5121;SDS011;2563;52.242;7.956;2023-08-24T01:31:29;11.43;;;5.00;;
5121;SDS011;2563;52.242;7.956;2023-08-24T01:33:55;9.53;;;4.27;;
5121;SDS011;2563;52.242;7.956;2023-08-24T01:36:20;9.73;;;4.30;;
5121;SDS011;2563;52.242;7.956;2023-08-24T01:38:53;8.20;;;3.63;;
5121;SDS011;2563;52.242;7.956;2023-08-24T01:41:28;11.63;;;3.63;;
5121;SDS011;2563;52.242;7.956;2023-08-24T01:43:58;7.50;;;2.87;;
5121;SDS011;2563;52.242;7.956;2023-08-24T01:46:26;6.60;;;2.70;;
5121;SDS011;2563;52.242;7.956;2023-08-24T01:48:52;5.07;;;3.00;;
5121;SDS011;2563;52.242;7.956;2023-08-24T01:51:19;6.13;;;3.00;;
5121;SDS011;2563;52.242;7.956;2023-08-24T01:53:45;4.40;;;2.30;;
5121;SDS011;2563;52.242;7.956;2023-08-24T01:56:12;6.57;;;2.60;;
5121;SDS011;2563;52.242;7.956;2023-08-24T01:58:38;14.67;;;3.00;;
5121;SDS011;2563;52.242;7.956;2023-08-24T02:01:04;11.03;;;2.90;;
5121;SDS011;2563;52.242;7.956;2023-08-24T02:03:30;5.87;;;3.00;;
5121;SDS011;2563;52.242;7.956;2023-08-24T02:05:56;11.23;;;3.00;;
5121;SDS011;2563;52.242;7.956;2023-08-24T02:08:21;6.20;;;2.97;;
5121;SDS011;2563;52.242;7.956;2023-08-24T02:10:47;8.67;;;3.40;;
5121;SDS011;2563;52.242;7.956;2023-08-24T02:13:12;13.00;;;3.20;;
5121;SDS011;2563;52.242;7.956;2023-08-24T02:15:37;7.40;;;3.03;;
5121;SDS011;2563;52.242;7.956;2023-08-24T02:18:06;8.70;;;4.90;;
5121;SDS011;2563;52.242;7.956;2023-08-24T02:20:38;6.70;;;3.23;;
5121;SDS011;2563;52.242;7.956;2023-08-24T02:23:04;6.10;;;2.70;;
5121;SDS011;2563;52.242;7.956;2023-08-24T02:25:29;6.20;;;3.37;;
5121;SDS011;2563;52.242;7.956;2023-08-24T02:27:55;6.80;;;2.93;;
5121;SDS011;2563;52.242;7.956;2023-08-24T02:30:20;5.53;;;2.90;;
5121;SDS011;2563;52.242;7.956;2023-08-24T02:32:46;5.67;;;2.97;;
5121;SDS011;2563;52.242;7.956;2023-08-24T02:35:11;5.70;;;2.93;;
5121;SDS011;2563;52.242;7.956;2023-08-24T02:37:39;6.80;;;3.57;;
5121;SDS011;2563;52.242;7.956;2023-08-24T02:40:05;7.30;;;2.93;;
5121;SDS011;2563;52.242;7.956;2023-08-24T02:42:31;11.77;;;3.30;;
5121;SDS011;2563;52.242;7.956;2023-08-24T02:44:57;6.20;;;3.30;;
5121;SDS011;2563;52.242;7.956;2023-08-24T02:47:23;7.33;;;3.60;;
5121;SDS011;2563;52.242;7.956;2023-08-24T02:49:48;7.63;;;4.13;;
5121;SDS011;2563;52.242;7.956;2023-08-24T02:52:14;11.27;;;3.57;;
5121;SDS011;2563;52.242;7.956;2023-08-24T02:54:39;8.43;;;4.17;;
5121;SDS011;2563;52.242;7.956;2023-08-24T02:57:04;10.63;;;3.63;;
5121;SDS011;2563;52.242;7.956;2023-08-24T02:59:30;7.80;;;3.53;;
5121;SDS011;2563;52.242;7.956;2023-08-24T03:01:55;11.60;;;4.10;;
5121;SDS011;2563;52.242;7.956;2023-08-24T03:04:20;16.37;;;4.40;;
5121;SDS011;2563;52.242;7.956;2023-08-24T03:06:46;9.57;;;3.57;;
5121;SDS011;2563;52.242;7.956;2023-08-24T03:09:11;9.33;;;3.80;;
5121;SDS011;2563;52.242;7.956;2023-08-24T03:11:37;8.30;;;3.83;;
5121;SDS011;2563;52.242;7.956;2023-08-24T03:14:03;11.90;;;3.67;;
5121;SDS011;2563;52.242;7.956;2023-08-24T03:16:29;7.20;;;4.20;;
5121;SDS011;2563;52.242;7.956;2023-08-24T03:18:54;11.90;;;4.67;;
5121;SDS011;2563;52.242;7.956;2023-08-24T03:21:19;8.43;;;4.07;;
5121;SDS011;2563;52.242;7.956;2023-08-24T03:23:45;11.67;;;5.47;;
5121;SDS011;2563;52.242;7.956;2023-08-24T03:26:10;9.43;;;4.30;;
5121;SDS011;2563;52.242;7.956;2023-08-24T03:28:36;9.93;;;4.63;;
5121;SDS011;2563;52.242;7.956;2023-08-24T03:31:02;9.33;;;4.43;;
5121;SDS011;2563;52.242;7.956;2023-08-24T03:33:27;11.90;;;4.30;;
5121;SDS011;2563;52.242;7.956;2023-08-24T03:35:53;12.13;;;3.83;;
5121;SDS011;2563;52.242;7.956;2023-08-24T03:38:18;8.40;;;4.40;;
5121;SDS011;2563;52.242;7.956;2023-08-24T03:40:44;10.93;;;4.50;;
5121;SDS011;2563;52.242;7.956;2023-08-24T03:43:09;8.40;;;4.23;;
5121;SDS011;2563;52.242;7.956;2023-08-24T03:45:34;11.07;;;5.17;;
5121;SDS011;2563;52.242;7.956;2023-08-24T03:48:00;11.67;;;4.90;;
5121;SDS011;2563;52.242;7.956;2023-08-24T03:50:25;8.10;;;4.20;;
5121;SDS011;2563;52.242;7.956;2023-08-24T03:52:51;8.57;;;4.90;;
5121;SDS011;2563;52.242;7.956;2023-08-24T03:55:17;10.23;;;4.63;;
5121;SDS011;2563;52.242;7.956;2023-08-24T03:57:42;14.07;;;5.03;;
5121;SDS011;2563;52.242;7.956;2023-08-24T04:00:08;11.17;;;5.03;;
5121;SDS011;2563;52.242;7.956;2023-08-24T04:02:40;11.87;;;4.83;;
5121;SDS011;2563;52.242;7.956;2023-08-24T04:05:06;9.20;;;4.80;;
5121;SDS011;2563;52.242;7.956;2023-08-24T04:07:32;10.37;;;4.80;;
5121;SDS011;2563;52.242;7.956;2023-08-24T04:09:58;10.87;;;4.50;;
5121;SDS011;2563;52.242;7.956;2023-08-24T04:12:23;9.07;;;4.47;;
5121;SDS011;2563;52.242;7.956;2023-08-24T04:14:49;7.37;;;3.90;;
5121;SDS011;2563;52.242;7.956;2023-08-24T04:17:14;13.00;;;4.93;;
5121;SDS011;2563;52.242;7.956;2023-08-24T04:19:40;9.50;;;5.20;;
5121;SDS011;2563;52.242;7.956;2023-08-24T04:22:05;13.23;;;5.37;;
5121;SDS011;2563;52.242;7.956;2023-08-24T04:24:31;10.30;;;5.50;;
5121;SDS011;2563;52.242;7.956;2023-08-24T04:26:56;15.07;;;6.70;;
5121;SDS011;2563;52.242;7.956;2023-08-24T04:29:21;13.20;;;5.40;;
5121;SDS011;2563;52.242;7.956;2023-08-24T04:31:47;15.83;;;6.20;;
5121;SDS011;2563;52.242;7.956;2023-08-24T04:34:12;10.93;;;6.27;;
5121;SDS011;2563;52.242;7.956;2023-08-24T04:36:38;12.90;;;6.13;;
5121;SDS011;2563;52.242;7.956;2023-08-24T04:39:03;14.50;;;5.73;;
5121;SDS011;2563;52.242;7.956;2023-08-24T04:41:28;12.80;;;6.07;;
5121;SDS011;2563;52.242;7.956;2023-08-24T04:43:54;11.40;;;6.40;;
5121;SDS011;2563;52.242;7.956;2023-08-24T04:46:19;11.80;;;5.37;;
5121;SDS011;2563;52.242;7.956;2023-08-24T04:48:45;13.27;;;6.27;;
5121;SDS011;2563;52.242;7.956;2023-08-24T04:51:10;13.90;;;6.90;;
5121;SDS011;2563;52.242;7.956;2023-08-24T04:53:36;13.33;;;6.83;;
5121;SDS011;2563;52.242;7.956;2023-08-24T04:56:01;18.33;;;7.73;;
5121;SDS011;2563;52.242;7.956;2023-08-24T04:58:26;16.10;;;7.47;;
5121;SDS011;2563;52.242;7.956;2023-08-24T05:00:52;15.57;;;8.13;;
5121;SDS011;2563;52.242;7.956;2023-08-24T05:03:17;16.47;;;7.57;;
5121;SDS011;2563;52.242;7.956;2023-08-24T05:05:44;18.60;;;8.37;;
5121;SDS011;2563;52.242;7.956;2023-08-24T05:08:09;17.27;;;7.30;;
5121;SDS011;2563;52.242;7.956;2023-08-24T05:10:35;14.53;;;6.70;;
5121;SDS011;2563;52.242;7.956;2023-08-24T05:13:01;18.93;;;7.20;;
5121;SDS011;2563;52.242;7.956;2023-08-24T05:15:27;12.73;;;6.33;;
5121;SDS011;2563;52.242;7.956;2023-08-24T05:17:52;14.77;;;7.00;;
5121;SDS011;2563;52.242;7.956;2023-08-24T05:20:20;15.60;;;6.73;;
5121;SDS011;2563;52.242;7.956;2023-08-24T05:22:45;18.17;;;7.63;;
5121;SDS011;2563;52.242;7.956;2023-08-24T05:25:11;14.27;;;7.50;;
5121;SDS011;2563;52.242;7.956;2023-08-24T05:27:37;17.00;;;7.87;;
5121;SDS011;2563;52.242;7.956;2023-08-24T05:30:02;15.53;;;7.03;;
5121;SDS011;2563;52.242;7.956;2023-08-24T05:32:29;14.93;;;6.90;;
5121;SDS011;2563;52.242;7.956;2023-08-24T05:34:54;19.13;;;7.73;;
5121;SDS011;2563;52.242;7.956;2023-08-24T05:37:19;14.57;;;8.07;;
5121;SDS011;2563;52.242;7.956;2023-08-24T05:39:45;17.33;;;8.30;;
5121;SDS011;2563;52.242;7.956;2023-08-24T05:42:10;14.97;;;8.23;;
5121;SDS011;2563;52.242;7.956;2023-08-24T05:44:35;21.23;;;8.63;;
5121;SDS011;2563;52.242;7.956;2023-08-24T05:47:01;11.97;;;7.50;;
5121;SDS011;2563;52.242;7.956;2023-08-24T05:49:26;11.73;;;7.40;;
5121;SDS011;2563;52.242;7.956;2023-08-24T05:51:52;15.30;;;8.63;;
5121;SDS011;2563;52.242;7.956;2023-08-24T05:54:18;20.43;;;8.63;;
5121;SDS011;2563;52.242;7.956;2023-08-24T05:56:46;15.03;;;7.33;;
5121;SDS011;2563;52.242;7.956;2023-08-24T05:59:13;15.20;;;7.97;;
5121;SDS011;2563;52.242;7.956;2023-08-24T06:01:39;14.00;;;6.73;;
5121;SDS011;2563;52.242;7.956;2023-08-24T06:04:07;17.30;;;8.23;;
5121;SDS011;2563;52.242;7.956;2023-08-24T06:06:34;15.20;;;7.37;;
5121;SDS011;2563;52.242;7.956;2023-08-24T06:08:59;13.57;;;7.37;;
5121;SDS011;2563;52.242;7.956;2023-08-24T06:11:25;17.20;;;6.77;;
5121;SDS011;2563;52.242;7.956;2023-08-24T06:13:50;17.27;;;8.10;;
5121;SDS011;2563;52.242;7.956;2023-08-24T06:16:18;32.20;;;7.77;;
5121;SDS011;2563;52.242;7.956;2023-08-24T06:18:44;15.47;;;7.27;;
5121;SDS011;2563;52.242;7.956;2023-08-24T06:21:09;16.13;;;8.20;;
5121;SDS011;2563;52.242;7.956;2023-08-24T06:23:34;21.43;;;7.97;;
5121;SDS011;2563;52.242;7.956;2023-08-24T06:26:00;16.33;;;7.93;;
5121;SDS011;2563;52.242;7.956;2023-08-24T06:28:26;19.10;;;8.70;;
5121;SDS011;2563;52.242;7.956;2023-08-24T06:30:51;17.23;;;9.60;;
5121;SDS011;2563;52.242;7.956;2023-08-24T06:33:17;20.73;;;8.73;;
5121;SDS011;2563;52.242;7.956;2023-08-24T06:35:42;15.60;;;9.30;;
5121;SDS011;2563;52.242;7.956;2023-08-24T06:38:08;12.93;;;7.40;;
5121;SDS011;2563;52.242;7.956;2023-08-24T06:40:33;14.53;;;8.77;;
5121;SDS011;2563;52.242;7.956;2023-08-24T06:42:58;18.40;;;9.90;;
5121;SDS011;2563;52.242;7.956;2023-08-24T06:45:24;16.93;;;8.60;;
5121;SDS011;2563;52.242;7.956;2023-08-24T06:47:49;17.03;;;8.80;;
5121;SDS011;2563;52.242;7.956;2023-08-24T06:50:16;15.53;;;9.00;;
5121;SDS011;2563;52.242;7.956;2023-08-24T06:52:41;16.63;;;8.47;;
5121;SDS011;2563;52.242;7.956;2023-08-24T06:55:10;21.87;;;8.73;;
5121;SDS011;2563;52.242;7.956;2023-08-24T06:57:36;19.63;;;7.93;;
5121;SDS011;2563;52.242;7.956;2023-08-24T07:00:02;18.57;;;8.27;;
5121;SDS011;2563;52.242;7.956;2023-08-24T07:02:31;16.33;;;8.03;;
5121;SDS011;2563;52.242;7.956;2023-08-24T07:04:57;13.93;;;7.87;;
5121;SDS011;2563;52.242;7.956;2023-08-24T07:07:22;12.67;;;7.70;;
5121;SDS011;2563;52.242;7.956;2023-08-24T07:09:48;13.83;;;8.00;;
5121;SDS011;2563;52.242;7.956;2023-08-24T07:12:13;19.00;;;8.60;;
5121;SDS011;2563;52.242;7.956;2023-08-24T07:14:38;12.40;;;8.23;;
5121;SDS011;2563;52.242;7.956;2023-08-24T07:17:05;14.60;;;8.80;;
5121;SDS011;2563;52.242;7.956;2023-08-24T07:19:31;22.40;;;9.23;;
5121;SDS011;2563;52.242;7.956;2023-08-24T07:21:56;16.03;;;9.00;;
5121;SDS011;2563;52.242;7.956;2023-08-24T07:24:21;21.10;;;9.93;;
5121;SDS011;2563;52.242;7.956;2023-08-24T07:26:51;15.60;;;8.90;;
5121;SDS011;2563;52.242;7.956;2023-08-24T07:29:17;14.40;;;9.30;;
5121;SDS011;2563;52.242;7.956;2023-08-24T07:31:42;18.43;;;10.03;;
5121;SDS011;2563;52.242;7.956;2023-08-24T07:34:08;13.33;;;9.03;;
5121;SDS011;2563;52.242;7.956;2023-08-24T07:36:33;13.60;;;8.17;;
5121;SDS011;2563;52.242;7.956;2023-08-24T07:38:58;15.97;;;9.33;;
5121;SDS011;2563;52.242;7.956;2023-08-24T07:41:24;17.13;;;8.50;;
5121;SDS011;2563;52.242;7.956;2023-08-24T07:43:49;13.00;;;7.43;;
5121;SDS011;2563;52.242;7.956;2023-08-24T07:46:15;15.13;;;7.70;;
5121;SDS011;2563;52.242;7.956;2023-08-24T07:48:40;14.80;;;7.70;;
5121;SDS011;2563;52.242;7.956;2023-08-24T07:51:06;13.13;;;7.93;;
5121;SDS011;2563;52.242;7.956;2023-08-24T07:53:33;12.77;;;7.40;;
5121;SDS011;2563;52.242;7.956;2023-08-24T07:55:58;12.23;;;8.33;;
5121;SDS011;2563;52.242;7.956;2023-08-24T07:58:24;17.10;;;8.30;;
5121;SDS011;2563;52.242;7.956;2023-08-24T08:00:50;11.47;;;7.63;;
5121;SDS011;2563;52.242;7.956;2023-08-24T08:03:17;10.50;;;7.60;;
5121;SDS011;2563;52.242;7.956;2023-08-24T08:05:43;12.77;;;7.27;;
5121;SDS011;2563;52.242;7.956;2023-08-24T08:08:08;12.90;;;8.00;;
5121;SDS011;2563;52.242;7.956;2023-08-24T08:10:34;12.10;;;8.40;;
5121;SDS011;2563;52.242;7.956;2023-08-24T08:12:59;13.37;;;7.43;;
5121;SDS011;2563;52.242;7.956;2023-08-24T08:15:24;12.80;;;7.10;;
5121;SDS011;2563;52.242;7.956;2023-08-24T08:17:50;12.23;;;6.97;;
5121;SDS011;2563;52.242;7.956;2023-08-24T08:20:16;9.30;;;6.70;;
5121;SDS011;2563;52.242;7.956;2023-08-24T08:22:41;14.77;;;8.20;;
5121;SDS011;2563;52.242;7.956;2023-08-24T08:25:06;14.97;;;6.83;;
5121;SDS011;2563;52.242;7.956;2023-08-24T08:27:32;13.67;;;6.60;;
5121;SDS011;2563;52.242;7.956;2023-08-24T08:29:58;11.53;;;6.60;;
5121;SDS011;2563;52.242;7.956;2023-08-24T08:32:24;13.20;;;7.70;;
5121;SDS011;2563;52.242;7.956;2023-08-24T08:34:55;13.57;;;8.13;;
5121;SDS011;2563;52.242;7.956;2023-08-24T08:37:25;11.07;;;6.70;;
5121;SDS011;2563;52.242;7.956;2023-08-24T08:39:50;14.53;;;6.97;;
5121;SDS011;2563;52.242;7.956;2023-08-24T08:42:16;8.70;;;6.20;;
5121;SDS011;2563;52.242;7.956;2023-08-24T08:44:41;11.10;;;7.37;;
5121;SDS011;2563;52.242;7.956;2023-08-24T08:47:11;8.87;;;6.50;;
5121;SDS011;2563;52.242;7.956;2023-08-24T08:49:39;12.80;;;7.43;;
5121;SDS011;2563;52.242;7.956;2023-08-24T08:52:10;15.40;;;6.30;;
5121;SDS011;2563;52.242;7.956;2023-08-24T08:54:36;12.80;;;7.00;;
5121;SDS011;2563;52.242;7.956;2023-08-24T08:57:02;11.00;;;6.57;;
5121;SDS011;2563;52.242;7.956;2023-08-24T08:59:28;11.40;;;6.90;;
5121;SDS011;2563;52.242;7.956;2023-08-24T09:01:56;13.33;;;6.83;;
5121;SDS011;2563;52.242;7.956;2023-08-24T09:04:23;8.40;;;5.97;;
5121;SDS011;2563;52.242;7.956;2023-08-24T09:06:49;11.57;;;6.37;;
5121;SDS011;2563;52.242;7.956;2023-08-24T09:09:15;7.80;;;5.87;;
5121;SDS011;2563;52.242;7.956;2023-08-24T09:11:41;11.60;;;6.33;;
5121;SDS011;2563;52.242;7.956;2023-08-24T09:14:07;10.23;;;7.00;;
5121;SDS011;2563;52.242;7.956;2023-08-24T09:16:32;9.53;;;6.00;;
5121;SDS011;2563;52.242;7.956;2023-08-24T09:18:58;9.93;;;6.30;;
5121;SDS011;2563;52.242;7.956;2023-08-24T09:21:24;12.53;;;7.37;;
5121;SDS011;2563;52.242;7.956;2023-08-24T09:23:54;8.60;;;6.80;;
5121;SDS011;2563;52.242;7.956;2023-08-24T09:26:29;11.30;;;6.33;;
5121;SDS011;2563;52.242;7.956;2023-08-24T09:28:56;12.27;;;6.87;;
5121;SDS011;2563;52.242;7.956;2023-08-24T09:31:22;14.90;;;7.93;;
5121;SDS011;2563;52.242;7.956;2023-08-24T09:33:49;12.43;;;8.10;;
5121;SDS011;2563;52.242;7.956;2023-08-24T09:36:14;15.13;;;7.30;;
5121;SDS011;2563;52.242;7.956;2023-08-24T09:38:46;9.23;;;7.30;;
5121;SDS011;2563;52.242;7.956;2023-08-24T09:41:15;8.90;;;7.33;;
5121;SDS011;2563;52.242;7.956;2023-08-24T09:43:41;9.20;;;7.80;;
5121;SDS011;2563;52.242;7.956;2023-08-24T09:46:06;10.43;;;7.33;;
5121;SDS011;2563;52.242;7.956;2023-08-24T09:48:33;11.90;;;7.40;;
5121;SDS011;2563;52.242;7.956;2023-08-24T09:50:58;15.03;;;8.60;;
5121;SDS011;2563;52.242;7.956;2023-08-24T09:53:28;14.50;;;7.60;;
5121;SDS011;2563;52.242;7.956;2023-08-24T09:56:01;16.27;;;7.77;;
5121;SDS011;2563;52.242;7.956;2023-08-24T09:58:27;9.73;;;6.40;;
5121;SDS011;2563;52.242;7.956;2023-08-24T10:00:53;7.23;;;5.10;;
5121;SDS011;2563;52.242;7.956;2023-08-24T10:03:20;8.30;;;5.27;;
5121;SDS011;2563;52.242;7.956;2023-08-24T10:05:51;9.90;;;4.50;;
5121;SDS011;2563;52.242;7.956;2023-08-24T10:08:29;7.03;;;4.33;;
5121;SDS011;2563;52.242;7.956;2023-08-24T10:11:01;9.43;;;3.97;;
5121;SDS011;2563;52.242;7.956;2023-08-24T10:13:29;8.23;;;4.43;;
5121;SDS011;2563;52.242;7.956;2023-08-24T10:16:15;6.53;;;4.60;;
5121;SDS011;2563;52.242;7.956;2023-08-24T10:18:41;5.80;;;3.97;;
5121;SDS011;2563;52.242;7.956;2023-08-24T10:21:07;5.10;;;4.00;;
5121;SDS011;2563;52.242;7.956;2023-08-24T10:23:34;8.73;;;4.90;;
5121;SDS011;2563;52.242;7.956;2023-08-24T10:26:02;4.03;;;3.13;;
5121;SDS011;2563;52.242;7.956;2023-08-24T10:28:28;5.27;;;3.77;;
5121;SDS011;2563;52.242;7.956;2023-08-24T10:30:54;6.90;;;4.13;;
5121;SDS011;2563;52.242;7.956;2023-08-24T10:33:23;7.43;;;4.20;;
5121;SDS011;2563;52.242;7.956;2023-08-24T10:35:49;6.10;;;4.00;;
5121;SDS011;2563;52.242;7.956;2023-08-24T10:40:53;8.27;;;3.77;;
5121;SDS011;2563;52.242;7.956;2023-08-24T10:43:19;6.00;;;3.93;;
5121;SDS011;2563;52.242;7.956;2023-08-24T10:45:58;6.23;;;3.90;;
5121;SDS011;2563;52.242;7.956;2023-08-24T10:48:28;7.10;;;4.77;;
5121;SDS011;2563;52.242;7.956;2023-08-24T10:53:46;5.30;;;3.57;;
5121;SDS011;2563;52.242;7.956;2023-08-24T10:56:19;6.80;;;3.87;;
5121;SDS011;2563;52.242;7.956;2023-08-24T10:58:45;12.20;;;4.17;;
5121;SDS011;2563;52.242;7.956;2023-08-24T11:01:18;8.10;;;4.43;;
5121;SDS011;2563;52.242;7.956;2023-08-24T11:04:17;6.70;;;4.10;;
5121;SDS011;2563;52.242;7.956;2023-08-24T11:06:50;8.73;;;4.10;;
5121;SDS011;2563;52.242;7.956;2023-08-24T11:09:17;6.90;;;4.00;;
5121;SDS011;2563;52.242;7.956;2023-08-24T11:11:53;5.10;;;3.77;;
5121;SDS011;2563;52.242;7.956;2023-08-24T11:14:20;10.40;;;4.37;;
5121;SDS011;2563;52.242;7.956;2023-08-24T11:16:50;6.27;;;4.27;;
5121;SDS011;2563;52.242;7.956;2023-08-24T11:19:15;4.60;;;3.83;;
5121;SDS011;2563;52.242;7.956;2023-08-24T11:21:42;8.33;;;3.93;;
5121;SDS011;2563;52.242;7.956;2023-08-24T11:24:09;5.97;;;4.00;;
5121;SDS011;2563;52.242;7.956;2023-08-24T11:26:44;5.43;;;3.27;;
5121;SDS011;2563;52.242;7.956;2023-08-24T11:29:10;5.10;;;4.30;;
5121;SDS011;2563;52.242;7.956;2023-08-24T11:31:36;6.50;;;3.93;;
5121;SDS011;2563;52.242;7.956;2023-08-24T11:34:03;7.13;;;4.60;;
5121;SDS011;2563;52.242;7.956;2023-08-24T11:36:29;6.67;;;4.17;;
5121;SDS011;2563;52.242;7.956;2023-08-24T11:39:18;7.13;;;4.13;;
5121;SDS011;2563;52.242;7.956;2023-08-24T11:42:01;8.57;;;4.87;;
5121;SDS011;2563;52.242;7.956;2023-08-24T11:44:47;8.00;;;4.30;;
5121;SDS011;2563;52.242;7.956;2023-08-24T11:47:14;13.10;;;6.20;;
5121;SDS011;2563;52.242;7.956;2023-08-24T11:49:40;8.33;;;4.70;;
5121;SDS011;2563;52.242;7.956;2023-08-24T11:52:06;9.30;;;5.00;;
5121;SDS011;2563;52.242;7.956;2023-08-24T11:54:32;7.40;;;4.97;;
5121;SDS011;2563;52.242;7.956;2023-08-24T11:56:57;5.87;;;4.80;;
5121;SDS011;2563;52.242;7.956;2023-08-24T11:59:23;6.47;;;4.40;;
5121;SDS011;2563;52.242;7.956;2023-08-24T12:01:49;8.80;;;5.43;;
5121;SDS011;2563;52.242;7.956;2023-08-24T12:04:16;8.07;;;4.73;;
5121;SDS011;2563;52.242;7.956;2023-08-24T12:06:41;7.30;;;5.03;;
5121;SDS011;2563;52.242;7.956;2023-08-24T12:09:06;8.63;;;5.20;;
5121;SDS011;2563;52.242;7.956;2023-08-24T12:11:35;16.73;;;4.47;;
5121;SDS011;2563;52.242;7.956;2023-08-24T12:14:02;7.40;;;4.50;;
5121;SDS011;2563;52.242;7.956;2023-08-24T12:16:30;8.40;;;5.30;;
5121;SDS011;2563;52.242;7.956;2023-08-24T12:18:57;5.87;;;4.00;;
5121;SDS011;2563;52.242;7.956;2023-08-24T12:21:30;9.90;;;3.50;;
5121;SDS011;2563;52.242;7.956;2023-08-24T12:24:00;6.50;;;3.33;;
5121;SDS011;2563;52.242;7.956;2023-08-24T12:26:31;4.77;;;2.93;;
5121;SDS011;2563;52.242;7.956;2023-08-24T12:29:01;7.40;;;3.67;;
5121;SDS011;2563;52.242;7.956;2023-08-24T12:31:31;8.20;;;3.17;;
5121;SDS011;2563;52.242;7.956;2023-08-24T12:34:00;5.13;;;3.43;;
5121;SDS011;2563;52.242;7.956;2023-08-24T12:36:31;5.30;;;3.67;;
5121;SDS011;2563;52.242;7.956;2023-08-24T12:38:57;8.60;;;3.30;;
5121;SDS011;2563;52.242;7.956;2023-08-24T12:41:23;11.33;;;3.50;;
5121;SDS011;2563;52.242;7.956;2023-08-24T12:43:49;6.83;;;3.07;;
5121;SDS011;2563;52.242;7.956;2023-08-24T12:46:17;6.40;;;4.10;;
5121;SDS011;2563;52.242;7.956;2023-08-24T12:48:43;5.07;;;3.10;;
5121;SDS011;2563;52.242;7.956;2023-08-24T12:51:08;6.50;;;3.40;;
5121;SDS011;2563;52.242;7.956;2023-08-24T12:53:34;5.83;;;3.20;;
5121;SDS011;2563;52.242;7.956;2023-08-24T12:55:59;8.40;;;3.00;;
5121;SDS011;2563;52.242;7.956;2023-08-24T12:58:24;5.10;;;3.07;;
5121;SDS011;2563;52.242;7.956;2023-08-24T13:00:50;4.83;;;2.67;;
5121;SDS011;2563;52.242;7.956;2023-08-24T13:03:15;3.80;;;2.73;;
5121;SDS011;2563;52.242;7.956;2023-08-24T13:05:40;6.20;;;3.40;;
5121;SDS011;2563;52.242;7.956;2023-08-24T13:08:06;5.10;;;3.40;;
5121;SDS011;2563;52.242;7.956;2023-08-24T13:10:31;7.33;;;3.27;;
5121;SDS011;2563;52.242;7.956;2023-08-24T13:12:57;6.10;;;3.50;;
5121;SDS011;2563;52.242;7.956;2023-08-24T13:15:23;5.27;;;3.40;;
5121;SDS011;2563;52.242;7.956;2023-08-24T13:17:48;5.03;;;3.40;;
5121;SDS011;2563;52.242;7.956;2023-08-24T13:20:13;6.80;;;3.90;;
5121;SDS011;2563;52.242;7.956;2023-08-24T13:22:39;5.67;;;3.00;;
5121;SDS011;2563;52.242;7.956;2023-08-24T13:25:04;4.83;;;3.50;;
5121;SDS011;2563;52.242;7.956;2023-08-24T13:27:30;4.87;;;3.47;;
5121;SDS011;2563;52.242;7.956;2023-08-24T13:29:56;6.40;;;3.37;;
5121;SDS011;2563;52.242;7.956;2023-08-24T13:32:25;4.47;;;3.50;;
5121;SDS011;2563;52.242;7.956;2023-08-24T13:34:50;7.10;;;3.33;;
5121;SDS011;2563;52.242;7.956;2023-08-24T13:37:16;6.27;;;3.37;;
5121;SDS011;2563;52.242;7.956;2023-08-24T13:39:42;4.63;;;3.77;;
5121;SDS011;2563;52.242;7.956;2023-08-24T13:42:08;4.13;;;3.57;;
5121;SDS011;2563;52.242;7.956;2023-08-24T13:44:33;5.60;;;3.43;;
5121;SDS011;2563;52.242;7.956;2023-08-24T13:46:58;4.83;;;3.57;;
5121;SDS011;2563;52.242;7.956;2023-08-24T13:49:24;5.20;;;3.30;;
5121;SDS011;2563;52.242;7.956;2023-08-24T13:51:49;6.00;;;3.80;;
5121;SDS011;2563;52.242;7.956;2023-08-24T13:54:15;9.33;;;3.70;;
5121;SDS011;2563;52.242;7.956;2023-08-24T13:56:45;10.70;;;3.70;;
5121;SDS011;2563;52.242;7.956;2023-08-24T13:59:12;5.70;;;4.20;;
5121;SDS011;2563;52.242;7.956;2023-08-24T14:01:38;6.70;;;4.30;;
5121;SDS011;2563;52.242;7.956;2023-08-24T14:04:04;5.00;;;4.27;;
5121;SDS011;2563;52.242;7.956;2023-08-24T14:06:30;6.93;;;4.33;;
5121;SDS011;2563;52.242;7.956;2023-08-24T14:08:57;6.33;;;3.83;;
5121;SDS011;2563;52.242;7.956;2023-08-24T14:11:22;8.13;;;4.53;;
5121;SDS011;2563;52.242;7.956;2023-08-24T14:13:48;7.53;;;4.67;;
5121;SDS011;2563;52.242;7.956;2023-08-24T14:16:14;8.10;;;4.43;;
5121;SDS011;2563;52.242;7.956;2023-08-24T14:18:39;7.53;;;5.00;;
5121;SDS011;2563;52.242;7.956;2023-08-24T14:21:04;6.70;;;4.37;;
5121;SDS011;2563;52.242;7.956;2023-08-24T14:23:30;5.80;;;4.13;;
5121;SDS011;2563;52.242;7.956;2023-08-24T14:25:55;7.80;;;4.67;;
5121;SDS011;2563;52.242;7.956;2023-08-24T14:28:21;8.03;;;4.23;;
5121;SDS011;2563;52.242;7.956;2023-08-24T14:30:50;6.67;;;4.40;;
5121;SDS011;2563;52.242;7.956;2023-08-24T14:33:16;5.67;;;4.07;;
5121;SDS011;2563;52.242;7.956;2023-08-24T14:35:53;13.30;;;4.40;;
5121;SDS011;2563;52.242;7.956;2023-08-24T14:38:19;8.43;;;5.30;;
5121;SDS011;2563;52.242;7.956;2023-08-24T14:40:44;13.57;;;4.20;;
5121;SDS011;2563;52.242;7.956;2023-08-24T14:43:10;7.90;;;4.60;;
5121;SDS011;2563;52.242;7.956;2023-08-24T14:45:35;7.43;;;4.63;;
5121;SDS011;2563;52.242;7.956;2023-08-24T14:48:00;9.67;;;5.40;;
5121;SDS011;2563;52.242;7.956;2023-08-24T14:50:26;9.20;;;5.20;;
5121;SDS011;2563;52.242;7.956;2023-08-24T14:52:51;7.20;;;5.00;;
5121;SDS011;2563;52.242;7.956;2023-08-24T14:55:16;15.50;;;4.57;;
5121;SDS011;2563;52.242;7.956;2023-08-24T14:57:43;12.00;;;3.80;;
5121;SDS011;2563;52.242;7.956;2023-08-24T15:00:09;6.27;;;3.53;;
5121;SDS011;2563;52.242;7.956;2023-08-24T15:02:35;6.83;;;4.00;;
5121;SDS011;2563;52.242;7.956;2023-08-24T15:05:01;6.70;;;4.40;;
5121;SDS011;2563;52.242;7.956;2023-08-24T15:07:28;7.10;;;4.60;;
5121;SDS011;2563;52.242;7.956;2023-08-24T15:09:53;7.23;;;4.80;;
5121;SDS011;2563;52.242;7.956;2023-08-24T15:12:19;6.83;;;4.70;;
5121;SDS011;2563;52.242;7.956;2023-08-24T15:14:56;7.30;;;4.43;;
5121;SDS011;2563;52.242;7.956;2023-08-24T15:17:26;8.10;;;4.00;;